Latest Weather Observations for Darwin Airport

IDD60801

Issued at 10:01 am CST Monday 21 August 2017 (issued every 30 minutes, with the page automatically refreshed every 10 minutes)

About weather observations | Map of weather stations | Latest weather observations for NT | Other Formats
Station Details ID: 014015 Name: DARWIN AIRPORT Lat: -12.42 Lon: 130.89 Height: 30.4 m
Data from the previous 72 hours. | See also: Recent months at Darwin Airport
Date/Time
CST
Temp
°C
App
Temp
°C
Dew
Point
°C
Rel
Hum
%
Delta-T
°C
Wind Press
QNH
hPa
Press
MSL
hPa
Rain since
9am
mm
Dir  Spd
km/h
Gust
km/h
Spd
kts
Gust
kts
21/09:30am 28.1 29.6 19.0 57 5.9 NE 9 17 5 9 1014.3 1014.1 0.0
21/09:00am 27.2 29.1 19.8 64 4.8 ENE 9 13 5 7 1014.1 1013.9 0.0
21/08:30am 26.8 29.7 21.1 71 3.8 ENE 7 9 4 5 1014.0 1013.8 0.0
21/08:00am 25.2 28.4 21.6 80 2.4 ENE 7 9 4 5 1013.7 1013.5 0.0
21/07:30am 22.6 25.7 21.1 91 1.0 E 6 7 3 4 1013.4 1013.2 0.0
21/07:00am 21.8 25.7 20.4 92 0.9 CALM 0 0 0 0 1013.1 1012.9 0.0
21/06:30am 22.0 25.3 20.8 93 0.8 NE 4 6 2 3 1012.8 1012.6 0.0
21/06:00am 21.7 24.9 20.5 93 0.8 NE 4 4 2 2 1012.4 1012.2 0.0
21/05:30am 21.8 24.2 19.6 87 1.4 N 6 6 3 3 1012.3 1012.1 0.0
21/05:00am 22.0 24.2 19.7 87 1.5 N 7 7 4 4 1012.2 1012.0 0.0
21/04:30am 22.6 25.6 20.0 85 1.7 E 4 6 2 3 1012.3 1012.1 0.0
21/04:00am 22.6 24.9 19.5 82 2.0 ENE 6 7 3 4 1012.5 1012.3 0.0
21/03:30am 22.6 24.9 18.6 78 2.5 ENE 4 6 2 3 1012.5 1012.3 0.0
21/03:00am 23.1 24.9 18.3 74 3.0 ENE 6 7 3 4 1012.4 1012.2 0.0
21/02:30am 22.6 23.9 17.6 73 3.1 ENE 7 7 4 4 1012.3 1012.1 0.0
21/02:00am 22.7 24.0 17.0 70 3.5 ENE 6 7 3 4 1012.4 1012.2 0.0
21/01:30am 22.3 23.4 16.7 70 3.4 ENE 6 6 3 3 1012.4 1012.2 0.0
21/01:00am 22.0 23.3 17.6 76 2.7 NE 7 7 4 4 1012.6 1012.4 0.0
21/12:30am 22.0 23.9 17.6 76 2.7 NE 4 4 2 2 1012.7 1012.5 0.0
21/12:00am 22.6 25.2 17.4 72 3.2 CALM 0 0 0 0 1012.8 1012.6 0.0
 
Date/Time
CST
Temp
°C
App
Temp
°C
Dew
Point
°C
Rel
Hum
%
Delta-T
°C
Wind Press
QNH
hPa
Press
MSL
hPa
Rain since
9am
mm
Dir  Spd
km/h
Gust
km/h
Spd
kts
Gust
kts
20/11:30pm 24.2 25.7 17.5 66 4.2 SE 6 7 3 4 1012.7 1012.5 0.0
20/11:00pm 23.3 24.8 17.7 71 3.5 ESE 6 6 3 3 1012.5 1012.3 0.0
20/10:30pm 23.6 24.8 16.9 66 4.1 SE 6 7 3 4 1012.4 1012.2 0.0
20/10:00pm 23.4 24.7 17.1 67 3.9 SE 6 6 3 3 1012.2 1012.0 0.0
20/09:30pm 24.4 26.2 17.5 65 4.3 S 4 6 2 3 1012.2 1012.0 0.0
20/09:00pm 26.5 27.5 16.9 55 6.0 S 7 9 4 5 1012.0 1011.8 0.0
20/08:30pm 26.4 27.5 16.5 54 6.1 S 6 6 3 3 1011.8 1011.6 0.0
20/08:00pm 26.0 27.5 17.6 60 5.3 ENE 6 9 3 5 1011.4 1011.2 0.0
20/07:30pm 27.4 28.4 17.8 55 6.1 NNE 9 15 5 8 1011.0 1010.8 0.0
20/07:00pm 27.9 27.5 17.1 51 6.8 NNE 15 19 8 10 1010.8 1010.6 0.0
20/06:30pm 28.6 28.1 17.7 51 6.9 NNE 17 22 9 12 1010.5 1010.3 0.0
20/06:00pm 29.7 28.2 16.8 45 8.1 NNE 20 26 11 14 1010.3 1010.1 0.0
20/05:30pm 30.7 28.7 15.5 39 9.4 NNE 20 28 11 15 1010.1 1009.9 0.0
20/05:00pm 31.1 29.3 16.1 40 9.4 NNE 20 28 11 15 1009.9 1009.7 0.0
20/04:30pm 31.7 30.8 16.9 41 9.4 N 17 24 9 13 1009.9 1009.7 0.0
20/04:00pm 31.9 30.9 16.5 39 9.7 N 17 24 9 13 1010.2 1010.0 0.0
20/03:30pm 31.9 30.6 16.9 40 9.5 N 19 28 10 15 1010.5 1010.3 0.0
20/03:00pm 31.8 30.4 16.6 40 9.6 N 19 30 10 16 1010.9 1010.7 0.0
20/02:30pm 32.1 29.3 16.4 39 9.9 N 26 33 14 18 1011.1 1010.9 0.0
20/02:00pm 31.9 32.0 19.1 46 8.4 W 17 24 9 13 1011.6 1011.4 0.0
20/01:30pm 31.4 30.0 20.4 52 7.3 WNW 28 35 15 19 1012.5 1012.3 0.0
20/01:00pm 32.7 30.4 11.8 28 12.3 ENE 15 28 8 15 1012.8 1012.6 0.0
20/12:30pm 32.9 29.5 12.6 29 12.1 ENE 22 33 12 18 1013.3 1013.1 0.0
20/12:00pm 32.0 28.4 14.3 34 10.8 ENE 26 39 14 21 1013.8 1013.6 0.0
20/11:30am 30.7 28.6 16.1 41 9.1 E 22 32 12 17 1014.3 1014.1 0.0
20/11:00am 30.2 28.9 16.7 44 8.5 ENE 19 32 10 17 1014.8 1014.6 0.0
20/10:30am 29.4 29.1 18.3 51 7.1 E 17 26 9 14 1015.0 1014.8 0.0
20/10:00am 28.4 30.6 20.5 62 5.2 E 9 17 5 9 1015.2 1015.0 0.0
20/09:30am 27.2 30.8 21.2 69 4.0 NE 4 7 2 4 1015.2 1015.0 0.0
20/09:00am 26.8 30.8 22.7 78 2.8 NE 6 9 3 5 1015.1 1014.9 0.0
20/08:30am 25.8 29.3 22.2 80 2.4 ENE 7 9 4 5 1014.8 1014.6 0.0
20/08:00am 24.3 27.8 21.9 86 1.6 E 6 6 3 3 1014.5 1014.3 0.0
20/07:30am 22.5 26.2 21.4 93 0.7 E 4 6 2 3 1014.2 1014.0 0.0
20/07:00am 21.4 24.6 20.6 95 0.5 ENE 4 4 2 2 1013.8 1013.6 0.0
20/06:30am 21.0 24.0 20.1 95 0.6 ENE 4 6 2 3 1013.5 1013.3 0.0
20/06:00am 20.9 23.5 20.0 95 0.6 ENE 6 6 3 3 1013.1 1012.9 0.0
20/05:30am 21.4 25.0 20.5 95 0.6 ENE 2 4 1 2 1012.8 1012.6 0.0
20/05:00am 21.7 25.0 20.8 95 0.6 NE 4 4 2 2 1012.8 1012.6 0.0
20/04:30am 21.8 24.8 20.9 95 0.6 NE 6 6 3 3 1012.9 1012.7 0.0
20/04:00am 22.0 26.1 20.8 93 0.8 CALM 0 0 0 0 1012.9 1012.7 0.0
20/03:30am 22.4 26.5 20.7 90 1.1 CALM 0 0 0 0 1013.0 1012.8 0.0
20/03:00am 22.5 26.6 20.8 90 1.1 CALM 0 0 0 0 1013.1 1012.9 0.0
20/02:30am 22.6 25.8 20.6 88 1.3 ENE 4 4 2 2 1013.2 1013.0 0.0
20/02:00am 23.0 26.7 20.7 87 1.5 ENE 2 4 1 2 1013.3 1013.1 0.0
20/01:30am 23.0 26.8 21.0 88 1.3 ESE 2 4 1 2 1013.4 1013.2 0.0
20/01:00am 23.0 26.4 20.9 88 1.4 ENE 4 4 2 2 1013.7 1013.5 0.0
20/12:30am 23.0 26.1 21.0 88 1.3 ENE 6 7 3 4 1013.8 1013.6 0.0
20/12:00am 23.2 27.4 20.9 87 1.5 CALM 0 0 0 0 1013.9 1013.7 0.0
 
Date/Time
CST
Temp
°C
App
Temp
°C
Dew
Point
°C
Rel
Hum
%
Delta-T
°C
Wind Press
QNH
hPa
Press
MSL
hPa
Rain since
9am
mm
Dir  Spd
km/h
Gust
km/h
Spd
kts
Gust
kts
19/11:30pm 23.5 27.2 20.7 84 1.8 N 2 4 1 2 1013.8 1013.6 0.0
19/11:00pm 24.0 27.3 20.8 82 2.1 NW 4 6 2 3 1013.8 1013.6 0.0
19/10:30pm 24.4 28.0 20.6 79 2.5 SSE 2 4 1 2 1013.7 1013.5 0.0
19/10:00pm 25.5 28.5 20.8 75 3.1 S 6 9 3 5 1013.6 1013.4 0.0
19/09:30pm 26.2 28.9 20.6 71 3.7 S 7 9 4 5 1013.4 1013.2 0.0
19/09:00pm 26.5 29.2 20.2 68 4.1 SSW 6 7 3 4 1013.1 1012.9 0.0
19/08:30pm 26.8 29.2 20.1 66 4.4 SW 7 11 4 6 1012.8 1012.6 0.0
19/08:00pm 26.6 29.1 20.3 68 4.1 WSW 7 9 4 5 1012.3 1012.1 0.0
19/07:30pm 26.9 29.1 20.5 68 4.2 W 9 11 5 6 1011.9 1011.7 0.0
19/07:00pm 27.4 29.7 20.7 67 4.4 W 9 11 5 6 1011.4 1011.2 0.0
19/06:30pm 28.6 29.9 19.4 57 6.0 NW 11 15 6 8 1011.0 1010.8 0.0
19/06:00pm 29.7 30.8 18.0 49 7.5 NW 9 15 5 8 1010.7 1010.5 0.0
19/05:30pm 30.0 30.4 18.2 49 7.6 N 13 19 7 10 1010.4 1010.2 0.0
19/05:00pm 30.5 30.4 18.8 49 7.6 N 17 22 9 12 1010.5 1010.3 0.0
19/04:30pm 30.6 30.0 18.5 48 7.8 N 19 24 10 13 1010.5 1010.3 0.0
19/04:00pm 30.5 29.0 17.8 46 8.1 NNW 22 30 12 16 1010.7 1010.5 0.0
19/03:30pm 30.7 30.1 18.8 49 7.7 NNW 20 30 11 16 1010.8 1010.6 0.0
19/03:00pm 30.6 29.8 18.5 48 7.8 NNW 20 30 11 16 1011.0 1010.8 0.0
19/02:30pm 30.6 30.1 20.0 53 7.0 NW 22 28 12 15 1011.7 1011.5 0.0
19/02:00pm 31.0 31.2 20.6 54 6.9 WNW 20 24 11 13 1012.1 1011.9 0.0
19/01:30pm 30.6 30.9 20.5 54 6.7 NW 19 26 10 14 1012.5 1012.3 0.0
19/01:00pm 30.4 31.0 21.1 57 6.2 WNW 19 24 10 13 1013.2 1013.0 0.0
19/12:30pm 32.8 31.4 13.4 30 11.7 NNE 13 20 7 11 1013.8 1013.6 0.0
19/12:00pm 32.2 30.0 13.2 31 11.4 ENE 17 30 9 16 1014.3 1014.1 0.0
19/11:30am 31.5 29.2 14.7 36 10.3 NE 20 33 11 18 1014.9 1014.7 0.0
19/11:00am 30.0 32.2 19.6 53 6.8 W 7 15 4 8 1015.4 1015.2 0.0
19/10:30am 29.0 31.3 19.8 57 6.0 SE 7 19 4 10 1015.6 1015.4 0.0
19/10:00am 28.5 31.4 20.6 62 5.2 SE 6 9 3 5 1015.7 1015.5 0.0
19/09:30am 27.1 30.3 21.2 70 3.9 SW 6 9 3 5 1015.4 1015.2 0.0
19/09:00am 26.8 30.7 21.1 71 3.8 SE 2 6 1 3 1015.2 1015.0 0.0
19/08:30am 25.7 28.9 19.8 70 3.8 ESE 2 4 1 2 1014.9 1014.7 0.0
19/08:00am 23.8 27.3 20.3 81 2.3 ESE 2 4 1 2 1014.6 1014.4 0.0
19/07:30am 21.6 24.7 19.6 88 1.3 SSE 2 4 1 2 1014.3 1014.1 0.0
19/07:00am 21.0 24.0 19.3 90 1.1 ESE 2 4 1 2 1014.2 1014.0 0.0
19/06:30am 21.4 24.1 19.5 89 1.2 SE 4 6 2 3 1013.9 1013.7 0.0
19/06:00am 21.8 24.3 19.9 89 1.2 SSE 6 6 3 3 1013.6 1013.4 0.0
19/05:30am 21.8 24.2 19.6 87 1.4 SSE 6 7 3 4 1013.4 1013.2 0.0
19/05:00am 21.4 23.5 19.4 88 1.3 SSE 7 7 4 4 1013.3 1013.1 0.0
19/04:30am 22.0 24.7 19.5 86 1.6 SSE 4 6 2 3 1013.2 1013.0 0.0
19/04:00am 21.8 25.2 19.3 86 1.6 CALM 0 0 0 0 1013.2 1013.0 0.0
19/03:30am 22.1 25.5 19.4 85 1.7 CALM 0 0 0 0 1013.4 1013.2 0.0
19/03:00am 22.5 25.6 19.4 82 2.0 ESE 2 4 1 2 1013.5 1013.3 0.0
19/02:30am 22.9 25.6 19.5 81 2.2 ESE 4 4 2 2 1013.5 1013.3 0.0
19/02:00am 23.7 26.1 19.7 78 2.6 SE 6 6 3 3 1013.8 1013.6 0.0
19/01:30am 22.6 25.7 19.6 83 1.9 ESE 2 4 1 2 1013.9 1013.7 0.0
19/01:00am 23.0 25.4 19.7 82 2.1 SE 6 6 3 3 1014.0 1013.8 0.0
19/12:30am 23.1 26.7 19.8 82 2.1 CALM 0 4 0 2 1014.2 1014.0 0.0
19/12:00am 23.1 26.0 19.8 82 2.1 SE 4 6 2 3 1014.4 1014.2 0.0
 
Date/Time
CST
Temp
°C
App
Temp
°C
Dew
Point
°C
Rel
Hum
%
Delta-T
°C
Wind Press
QNH
hPa
Press
MSL
hPa
Rain since
9am
mm
Dir  Spd
km/h
Gust
km/h
Spd
kts
Gust
kts
18/11:30pm 22.9 25.8 19.8 83 2.0 SE 4 6 2 3 1014.2 1014.0 0.0
18/11:00pm 23.5 25.9 19.6 79 2.5 SE 6 6 3 3 1014.1 1013.9 0.0
18/10:30pm 24.3 27.2 19.8 76 2.9 SSE 4 6 2 3 1013.9 1013.7 0.0
18/10:00pm 25.5 27.8 19.4 69 3.9 S 6 6 3 3 1013.9 1013.7 0.0
18/09:30pm 25.9 28.2 19.4 67 4.2 S 6 7 3 4 1013.6 1013.4 0.0
18/09:00pm 25.9 28.2 19.4 67 4.2 ESE 6 7 3 4 1013.2 1013.0 0.0
18/08:30pm 26.5 28.9 19.6 66 4.5 ESE 6 7 3 4 1012.7 1012.5 0.0
18/08:00pm 26.6 26.8 19.3 64 4.7 NE 17 22 9 12 1011.9 1011.7 0.0
18/07:30pm 27.0 26.7 19.1 62 5.1 NE 19 24 10 13 1011.5 1011.3 0.0
18/07:00pm 27.3 26.9 19.3 61 5.2 NNE 20 26 11 14 1011.2 1011.0 0.0
18/06:30pm 28.3 27.8 19.2 57 5.9 NNE 20 28 11 15 1010.7 1010.5 0.0
18/06:00pm 29.6 29.2 19.3 54 6.7 NNE 20 26 11 14 1010.5 1010.3 0.0
18/05:30pm 30.4 29.8 19.8 53 7.0 NNE 22 26 12 14 1010.1 1009.9 0.0
18/05:00pm 30.1 29.6 19.9 54 6.7 N 22 28 12 15 1009.9 1009.7 0.0
18/04:30pm 30.8 30.8 20.9 55 6.6 N 22 28 12 15 1009.8 1009.6 0.0
18/04:00pm 31.5 31.6 21.2 54 6.9 N 22 28 12 15 1009.8 1009.6 0.0
18/03:30pm 31.7 32.1 21.8 55 6.7 N 22 30 12 16 1009.9 1009.7 0.0
18/03:00pm 30.7 30.5 21.2 57 6.4 NNW 24 28 13 15 1010.3 1010.1 0.0
18/02:30pm 32.1 32.2 20.4 50 7.8 NNW 20 33 11 18 1010.6 1010.4 0.0
18/02:00pm 32.1 32.5 20.9 51 7.5 WNW 20 26 11 14 1011.1 1010.9 0.0
18/01:30pm 33.2 32.1 14.3 32 11.6 WNW 13 22 7 12 1011.5 1011.3 0.0
18/01:00pm 33.3 31.4 14.2 31 11.7 ESE 17 46 9 25 1012.0 1011.8 0.0
18/12:30pm 32.1 32.1 17.2 41 9.5 E 13 22 7 12 1012.3 1012.1 0.0
18/12:00pm 31.3 31.7 18.1 45 8.5 ENE 13 32 7 17 1013.0 1012.8 0.0
18/11:30am 30.8 31.4 19.5 51 7.4 E 15 22 8 12 1013.5 1013.3 0.0
18/11:00am 29.5 30.6 19.7 55 6.4 ENE 13 22 7 12 1014.1 1013.9 0.0
18/10:30am 29.2 31.1 20.6 59 5.7 NE 11 19 6 10 1014.3 1014.1 0.0

Other Formats:

Comma delimited format used in spreadsheet applications
http://www.bom.gov.au/fwo/IDD60801/IDD60801.94120.axf

JavaScript Object Notation format (JSON) in row-major order
http://www.bom.gov.au/fwo/IDD60801/IDD60801.94120.json